Airfield :
LOGIN :

Register | Disclaimer

   EN    FR    IT 

 










Legend :    VFR   Marginal VFR   IFR   Intensive IFR   Very Intensive IFR
Visi :
Ceiling :
>= 8 km
>= 3000ft
5 to 8 km
1000 to 3000 ft
1500m to 5 km
500 to 1000 ft
800 to 1500m
200 to 500 ft
< 800m
< 200 ft
Symbols :   Thunderstorms  Fog  Heavy snow  Heavy precipitations  Wind > 20 kt
SIGMETs :     Misc.  Thunderstorms  Icing  Turbulence  Mountain Waves  Volcanic Ashes






- Airport Elevation : 22 ft
- IATA code : TUN


DTTA - Tunis Carthage

CURRENT METAR :
  • 260030Z 00000KT 4000 BR NSC 12/12 Q1019

EXPIRED METARs :
  • 260000Z 00000KT 4000 BR FEW030 12/11 Q1020
  • 252330Z VRB01KT 4000 BR FEW030 12/12 Q1020
  • 252300Z 16001KT 6000 FEW030 13/12 Q1020
  • 252230Z 15001KT 6000 FEW030 13/12 Q1020
  • 252200Z VRB01KT 6000 FEW030 13/11 Q1020

TAF TAF DTTA
Valid from the 26 at 00:00 until the 27 at 00:00 UTC


252300Z 2600/2624 10005KT 4000 BR FEW030
PROB40 2603/2608 0800 FG
BECMG 2608/2610 9999
BECMG 2610/2612 16011KT



MET'MAP, your aeronautical weather chart ! - Copyright ORBIFLY December 2007 - Disclaimer

ORBIFLY MET'MAP TEAM :

Programming & Development : Alexandra Zaïnal
Concept & original design : Baudouin d'Aumeries
Assistance for programming : Marc-Olivier Méhu
Technical & hardware support : Manuel Goepfert

Contact : metmap@orbifly.com




SOURCES & CREDITS :

   NOAA